createdAt,value
2023-01-04T00:02:22.698Z,0
2023-01-04T00:03:03.169Z,0
2023-01-04T00:03:44.544Z,0
2023-01-04T00:04:24.889Z,0
2023-01-04T00:05:05.487Z,0
2023-01-04T00:05:45.941Z,0
2023-01-04T00:06:26.471Z,0
2023-01-04T00:07:06.940Z,0
2023-01-04T00:07:48.415Z,0
2023-01-04T00:12:32.329Z,0
2023-01-04T00:13:12.841Z,0
2023-01-04T00:13:53.438Z,0
2023-01-04T00:14:33.963Z,0
2023-01-04T00:15:14.563Z,0
2023-01-04T00:15:55.063Z,0
2023-01-04T00:16:35.692Z,0
2023-01-04T00:17:16.138Z,0
2023-01-04T00:17:56.608Z,0
2023-01-04T00:20:10.286Z,0
2023-01-04T00:20:51.773Z,0
2023-01-04T00:21:33.880Z,0
2023-01-04T00:22:14.338Z,0
2023-01-04T00:24:27.834Z,0
2023-01-04T00:25:08.404Z,0
2023-01-04T00:25:48.949Z,0
2023-01-04T00:26:29.517Z,0
2023-01-04T00:28:47.064Z,0
2023-01-04T00:29:24.001Z,0
2023-01-04T00:30:04.635Z,0
2023-01-04T00:30:45.107Z,0
2023-01-04T00:31:25.661Z,0
2023-01-04T00:32:06.042Z,0
2023-01-04T00:32:46.571Z,0
2023-01-04T00:33:27.836Z,0
2023-01-04T00:38:52.544Z,0
2023-01-04T00:39:33.064Z,0
2023-01-04T00:40:13.612Z,0
2023-01-04T00:40:54.154Z,0
2023-01-04T00:41:57.294Z,0
2023-01-04T00:42:15.272Z,0
2023-01-04T00:42:55.806Z,0
2023-01-04T00:43:36.304Z,0
2023-01-04T00:44:17.050Z,0
2023-01-04T00:44:57.697Z,0
2023-01-04T00:51:02.676Z,0
2023-01-04T00:51:43.190Z,0
2023-01-04T00:52:23.771Z,0
2023-01-04T00:53:04.354Z,0
2023-01-04T00:53:44.864Z,0
2023-01-04T00:54:25.344Z,0
2023-01-04T00:55:05.883Z,0
2023-01-04T00:55:46.413Z,0
2023-01-04T00:56:27.006Z,0
2023-01-04T00:58:55.328Z,0
2023-01-04T00:59:35.831Z,0
2023-01-04T01:00:16.329Z,0
2023-01-04T01:00:56.868Z,0
2023-01-04T01:01:37.477Z,0
2023-01-04T01:02:18.135Z,0
2023-01-04T01:04:31.395Z,0
2023-01-04T01:05:11.918Z,0
2023-01-04T01:05:52.427Z,0
2023-01-04T01:06:32.932Z,0
2023-01-04T01:09:01.504Z,0
2023-01-04T01:09:42.080Z,0
2023-01-04T01:10:22.642Z,0
2023-01-04T01:11:03.264Z,0
2023-01-04T01:11:44.402Z,0
2023-01-04T01:12:24.979Z,0
2023-01-04T01:13:05.604Z,0
2023-01-04T01:19:11.192Z,0
2023-01-04T01:19:51.730Z,0
2023-01-04T01:22:20.039Z,0
2023-01-04T01:23:00.532Z,0
2023-01-04T01:23:41.028Z,0
2023-01-04T01:24:21.603Z,0
2023-01-04T01:25:02.112Z,0
2023-01-04T01:25:42.629Z,0
2023-01-04T01:26:23.134Z,0
2023-01-04T01:27:03.676Z,0
2023-01-04T01:27:44.269Z,0
2023-01-04T01:28:24.888Z,0
2023-01-04T01:32:20.664Z,0
2023-01-04T01:33:01.204Z,0
2023-01-04T01:33:41.741Z,0
2023-01-04T01:34:22.309Z,0
2023-01-04T01:35:02.858Z,0
2023-01-04T01:35:43.391Z,0
2023-01-04T01:36:24.765Z,0
2023-01-04T01:37:05.266Z,0
2023-01-04T01:43:50.833Z,0
2023-01-04T01:44:31.382Z,0
2023-01-04T01:45:11.942Z,0
2023-01-04T01:45:52.467Z,0
2023-01-04T01:48:05.529Z,0
2023-01-04T01:48:46.040Z,0
2023-01-04T01:49:28.345Z,0
2023-01-04T01:50:08.889Z,0
2023-01-04T01:50:49.403Z,0
2023-01-04T01:51:29.956Z,0
2023-01-04T01:53:43.015Z,0
2023-01-04T01:54:23.525Z,0
2023-01-04T01:55:04.146Z,0
2023-01-04T01:55:44.667Z,0
2023-01-04T01:56:25.204Z,0
2023-01-04T01:57:05.782Z,0
2023-01-04T01:57:46.369Z,0
2023-01-04T01:58:27.546Z,0
2023-01-04T01:59:08.041Z,0
2023-01-04T02:04:33.113Z,0
2023-01-04T02:05:13.635Z,0
2023-01-04T02:05:54.202Z,0
2023-01-04T02:06:34.767Z,0
2023-01-04T02:07:15.254Z,0
2023-01-04T02:09:30.963Z,0
2023-01-04T02:10:15.093Z,0
2023-01-04T02:10:58.968Z,0
2023-01-04T02:11:40.500Z,0
2023-01-04T02:13:38.460Z,0
2023-01-04T02:14:18.958Z,0
2023-01-04T02:14:59.418Z,0
2023-01-04T02:15:39.962Z,0
2023-01-04T02:17:55.111Z,0
2023-01-04T02:18:35.600Z,0
2023-01-04T02:19:16.140Z,0
2023-01-04T02:19:56.673Z,0
2023-01-04T02:20:37.160Z,0
2023-01-04T02:21:17.700Z,0
2023-01-04T02:21:58.252Z,0
2023-01-04T02:24:11.985Z,0
2023-01-04T02:24:53.095Z,0
2023-01-04T02:25:33.683Z,0
2023-01-04T02:26:14.225Z,0
2023-01-04T02:28:32.863Z,0
2023-01-04T02:29:13.427Z,0
2023-01-04T02:29:54.012Z,0
2023-01-04T02:30:34.462Z,0
2023-01-04T02:31:15.189Z,0
2023-01-04T02:31:56.350Z,0
2023-01-04T02:32:36.803Z,0
2023-01-04T02:33:17.335Z,0
2023-01-04T02:33:57.822Z,0
2023-01-04T02:39:23.056Z,0
2023-01-04T02:40:03.604Z,0
2023-01-04T02:40:44.244Z,0
2023-01-04T02:41:24.759Z,0
2023-01-04T02:42:05.866Z,0
2023-01-04T02:42:46.419Z,0
2023-01-04T02:43:26.971Z,0
2023-01-04T02:44:07.478Z,0
2023-01-04T02:48:52.912Z,0
2023-01-04T02:51:09.699Z,0
2023-01-04T02:51:50.244Z,0
2023-01-04T02:52:32.584Z,0
2023-01-04T02:53:14.933Z,0
2023-01-04T02:55:35.124Z,0
2023-01-04T02:56:15.684Z,0
2023-01-04T02:56:59.621Z,0
2023-01-04T02:57:36.688Z,0
2023-01-04T02:58:17.241Z,0
2023-01-04T02:58:57.804Z,0
2023-01-04T02:59:38.326Z,0
2023-01-04T03:00:18.893Z,0
2023-01-04T03:00:59.460Z,0
2023-01-04T03:01:40.088Z,0
2023-01-04T03:07:45.014Z,0
2023-01-04T03:08:25.575Z,0
2023-01-04T03:09:06.146Z,0
2023-01-04T03:09:46.656Z,0
2023-01-04T03:10:27.249Z,0
2023-01-04T03:11:08.336Z,0
2023-01-04T03:11:48.914Z,0
2023-01-04T03:12:29.470Z,0
2023-01-04T03:13:10.038Z,0
2023-01-04T03:19:14.789Z,0
2023-01-04T03:19:55.702Z,0
2023-01-04T03:20:35.826Z,0
2023-01-04T03:21:16.390Z,0
2023-01-04T03:21:56.878Z,0
2023-01-04T03:22:37.390Z,0
2023-01-04T03:23:17.928Z,0
2023-01-04T03:23:58.466Z,0
2023-01-04T03:24:39.971Z,0
2023-01-04T03:30:44.823Z,0
2023-01-04T03:31:25.438Z,0
2023-01-04T03:32:06.025Z,0
2023-01-04T03:32:46.440Z,0
2023-01-04T03:33:26.923Z,0
2023-01-04T03:34:07.457Z,0
2023-01-04T03:34:47.969Z,0
2023-01-04T03:35:28.627Z,0
2023-01-04T03:36:09.068Z,0
2023-01-04T03:36:49.560Z,0
2023-01-04T03:39:02.601Z,0
2023-01-04T03:39:43.109Z,0
2023-01-04T03:40:23.701Z,0
2023-01-04T03:41:04.383Z,0
2023-01-04T03:41:44.897Z,0
2023-01-04T03:42:25.462Z,0
2023-01-04T03:43:05.895Z,0
2023-01-04T03:43:46.421Z,0
2023-01-04T03:44:26.959Z,0
2023-01-04T03:45:10.184Z,0
2023-01-04T03:49:12.707Z,0
2023-01-04T03:49:53.249Z,0
2023-01-04T03:50:34.412Z,0
2023-01-04T03:51:14.971Z,0
2023-01-04T03:51:56.297Z,0
2023-01-04T03:52:36.864Z,0
2023-01-04T03:53:17.419Z,0
2023-01-04T03:57:11.804Z,0
2023-01-04T03:57:52.506Z,0
2023-01-04T03:58:32.896Z,0
2023-01-04T03:59:13.418Z,0
2023-01-04T03:59:53.934Z,0
2023-01-04T04:00:34.500Z,0
2023-01-04T04:01:15.125Z,0
2023-01-04T04:01:56.110Z,0
2023-01-04T04:02:36.696Z,0
2023-01-04T04:09:18.519Z,0
2023-01-04T04:09:59.057Z,0
2023-01-04T04:10:39.584Z,0
2023-01-04T04:11:20.071Z,0
2023-01-04T04:12:00.583Z,0
2023-01-04T04:12:41.124Z,0
2023-01-04T04:13:21.718Z,0
2023-01-04T04:14:02.171Z,0
2023-01-04T04:14:42.681Z,0
2023-01-04T04:15:23.196Z,0
2023-01-04T04:21:28.596Z,0
2023-01-04T04:22:09.791Z,0
2023-01-04T04:22:50.320Z,0
2023-01-04T04:23:30.856Z,0
2023-01-04T04:24:11.354Z,0
2023-01-04T04:24:51.914Z,0
2023-01-04T04:25:32.451Z,0
2023-01-04T04:26:12.963Z,0
2023-01-04T04:26:53.502Z,0
2023-01-04T04:32:59.043Z,0
2023-01-04T04:33:39.609Z,0
2023-01-04T04:34:20.117Z,0
2023-01-04T04:35:00.627Z,0
2023-01-04T04:35:41.831Z,0
2023-01-04T04:36:22.398Z,0
2023-01-04T04:37:02.894Z,0
2023-01-04T04:37:43.439Z,0
2023-01-04T04:41:02.930Z,0
2023-01-04T04:41:43.431Z,0
2023-01-04T04:42:23.956Z,0
2023-01-04T04:43:04.500Z,0
2023-01-04T04:43:45.076Z,0
2023-01-04T04:44:25.609Z,0
2023-01-04T04:45:06.225Z,0
2023-01-04T04:45:46.811Z,0
2023-01-04T04:46:27.480Z,0
2023-01-04T04:48:41.236Z,0
2023-01-04T04:49:21.782Z,0
2023-01-04T04:50:02.304Z,0
2023-01-04T04:50:42.884Z,0
2023-01-04T04:51:23.422Z,0
2023-01-04T04:53:39.016Z,0
2023-01-04T04:54:19.599Z,0
2023-01-04T04:55:01.138Z,0
2023-01-04T04:55:42.409Z,0
2023-01-04T04:56:24.734Z,0
2023-01-04T04:59:19.169Z,0
2023-01-04T04:59:59.703Z,0
2023-01-04T05:00:40.336Z,0
2023-01-04T05:01:20.823Z,0
2023-01-04T05:02:01.468Z,0
2023-01-04T05:02:45.409Z,0
2023-01-04T05:06:40.442Z,0
2023-01-04T05:07:21.782Z,0
2023-01-04T05:08:02.318Z,0
2023-01-04T05:08:43.844Z,0
2023-01-04T05:10:56.661Z,0
2023-01-04T05:11:37.825Z,0
2023-01-04T05:12:18.304Z,0
2023-01-04T05:12:59.536Z,0
2023-01-04T05:15:05.885Z,0
2023-01-04T05:15:46.387Z,0
2023-01-04T05:16:26.987Z,0
2023-01-04T05:17:07.511Z,0
2023-01-04T05:17:47.939Z,0
2023-01-04T05:18:28.467Z,0
2023-01-04T05:19:09.652Z,0
2023-01-04T05:21:24.227Z,0
2023-01-04T05:22:04.774Z,0
2023-01-04T05:22:45.320Z,0
2023-01-04T05:23:25.872Z,0
2023-01-04T05:24:06.437Z,0
2023-01-04T05:24:46.984Z,0
2023-01-04T05:25:27.525Z,0
2023-01-04T05:26:08.064Z,0
2023-01-04T05:26:48.587Z,0
2023-01-04T05:27:29.180Z,0
2023-01-04T05:33:33.966Z,0
2023-01-04T05:34:18.594Z,0
2023-01-04T05:34:55.027Z,0
2023-01-04T05:35:35.582Z,0
2023-01-04T05:36:16.135Z,0
2023-01-04T05:36:56.682Z,0
2023-01-04T05:39:10.427Z,0
2023-01-04T05:39:50.973Z,0
2023-01-04T05:40:31.512Z,0
2023-01-04T05:41:12.069Z,0
2023-01-04T05:41:52.619Z,0
2023-01-04T05:42:33.135Z,0
2023-01-04T05:43:13.766Z,0
2023-01-04T05:43:54.783Z,0
2023-01-04T05:47:59.929Z,0
2023-01-04T05:48:40.491Z,0
2023-01-04T05:49:21.031Z,0
2023-01-04T05:50:01.605Z,0
2023-01-04T05:50:42.155Z,0
2023-01-04T05:51:23.654Z,0
2023-01-04T05:52:04.260Z,0
2023-01-04T05:55:58.004Z,0
2023-01-04T05:56:38.604Z,0
2023-01-04T05:57:19.156Z,0
2023-01-04T05:58:00.524Z,0
2023-01-04T05:58:41.052Z,0
2023-01-04T05:59:21.638Z,0
2023-01-04T06:00:02.166Z,0
2023-01-04T06:00:42.712Z,0
2023-01-04T06:03:21.075Z,0
2023-01-04T06:04:03.604Z,0
2023-01-04T06:04:44.131Z,0
2023-01-04T06:05:24.630Z,0
2023-01-04T06:06:05.159Z,0
2023-01-04T06:08:17.996Z,0
2023-01-04T06:08:58.561Z,0
2023-01-04T06:09:39.145Z,0
2023-01-04T06:10:19.747Z,0
2023-01-04T06:11:00.303Z,0
2023-01-04T06:13:14.012Z,0
2023-01-04T06:13:54.356Z,0
2023-01-04T06:14:35.043Z,0
2023-01-04T06:15:16.541Z,0
2023-01-04T06:15:57.080Z,0
2023-01-04T06:16:37.639Z,0
2023-01-04T06:17:18.291Z,0
2023-01-04T06:17:58.979Z,0
2023-01-04T06:23:23.567Z,0
2023-01-04T06:25:51.879Z,0
2023-01-04T06:26:32.425Z,0
2023-01-04T06:27:12.992Z,0
2023-01-04T06:27:53.521Z,0
2023-01-04T06:28:38.657Z,0
2023-01-04T06:29:14.770Z,0
2023-01-04T06:31:12.782Z,0
2023-01-04T06:31:53.258Z,0
2023-01-04T06:32:33.782Z,0
2023-01-04T06:33:14.260Z,0
2023-01-04T06:33:54.783Z,0
2023-01-04T06:34:35.269Z,0
2023-01-04T06:35:15.804Z,0
2023-01-04T06:35:56.326Z,0
2023-01-04T06:36:36.983Z,0
2023-01-04T06:37:17.485Z,0
2023-01-04T06:44:55.049Z,0
2023-01-04T06:45:35.548Z,0
2023-01-04T06:46:16.167Z,0
2023-01-04T06:46:56.663Z,0
2023-01-04T06:47:37.206Z,0
2023-01-04T06:48:17.999Z,0
2023-01-04T06:48:58.156Z,0
2023-01-04T06:49:38.747Z,0
2023-01-04T06:50:19.533Z,4
2023-01-04T06:57:04.681Z,4
2023-01-04T06:57:45.333Z,4
2023-01-04T06:58:25.811Z,8
2023-01-04T06:59:06.408Z,4
2023-01-04T06:59:46.913Z,8
2023-01-04T07:00:27.578Z,8
2023-01-04T07:01:08.106Z,8
2023-01-04T07:01:48.691Z,8
2023-01-04T07:02:29.161Z,12
2023-01-04T07:03:13.032Z,8
2023-01-04T07:06:28.342Z,16
2023-01-04T07:07:08.882Z,16
2023-01-04T07:07:49.376Z,20
2023-01-04T07:08:29.883Z,20
2023-01-04T07:09:10.475Z,20
2023-01-04T07:11:24.048Z,24
2023-01-04T07:12:04.531Z,28
2023-01-04T07:12:45.090Z,28
2023-01-04T07:13:25.564Z,32
2023-01-04T07:14:06.263Z,32
2023-01-04T07:14:46.805Z,32
2023-01-04T07:15:37.709Z,32
2023-01-04T07:16:07.970Z,40
2023-01-04T07:16:48.510Z,40
2023-01-04T07:17:30.074Z,44
2023-01-04T07:22:54.127Z,64
2023-01-04T07:23:34.690Z,64
2023-01-04T07:24:15.452Z,64
2023-01-04T07:24:55.953Z,72
2023-01-04T07:25:36.528Z,76
2023-01-04T07:26:16.955Z,80
2023-01-04T07:26:57.493Z,80
2023-01-04T07:27:37.987Z,88
2023-01-04T07:28:18.539Z,92
2023-01-04T07:28:59.140Z,96
2023-01-04T07:31:37.671Z,116
2023-01-04T07:32:18.136Z,124
2023-01-04T07:32:58.706Z,132
2023-01-04T07:33:40.772Z,140
2023-01-04T07:36:01.720Z,168
2023-01-04T07:36:42.254Z,176
2023-01-04T07:37:22.818Z,176
2023-01-04T07:38:03.364Z,184
2023-01-04T07:38:44.619Z,192
2023-01-04T07:39:25.337Z,196
2023-01-04T07:40:06.408Z,200
2023-01-04T07:46:11.640Z,296
2023-01-04T07:46:52.171Z,300
2023-01-04T07:47:32.722Z,308
2023-01-04T07:48:14.276Z,308
2023-01-04T07:48:55.602Z,312
2023-01-04T07:49:36.113Z,312
2023-01-04T07:50:16.672Z,312
2023-01-04T07:55:41.746Z,336
2023-01-04T07:56:22.308Z,340
2023-01-04T07:57:02.849Z,352
2023-01-04T07:57:43.379Z,376
2023-01-04T07:58:23.952Z,396
2023-01-04T08:00:37.899Z,436
2023-01-04T08:01:19.250Z,440
2023-01-04T08:01:59.648Z,440
2023-01-04T08:02:40.275Z,436
2023-01-04T08:03:20.635Z,444
2023-01-04T08:04:01.233Z,452
2023-01-04T08:04:41.793Z,480
2023-01-04T08:05:22.310Z,508
2023-01-04T08:08:41.270Z,576
2023-01-04T08:09:21.813Z,596
2023-01-04T08:10:02.331Z,604
2023-01-04T08:10:42.855Z,608
2023-01-04T08:11:23.373Z,604
2023-01-04T08:12:03.874Z,600
2023-01-04T08:12:44.977Z,588
2023-01-04T08:13:25.495Z,588
2023-01-04T08:14:06.017Z,592
2023-01-04T08:20:41.139Z,884
2023-01-04T08:21:21.626Z,948
2023-01-04T08:22:07.636Z,1016
2023-01-04T08:22:55.909Z,1084
2023-01-04T08:25:11.138Z,1376
2023-01-04T08:25:51.596Z,1460
2023-01-04T08:26:32.095Z,1528
2023-01-04T08:27:12.809Z,1568
2023-01-04T08:29:41.177Z,1600
2023-01-04T08:30:22.054Z,1600
2023-01-04T08:31:03.240Z,1640
2023-01-04T08:31:43.696Z,1660
2023-01-04T08:32:24.195Z,1656
2023-01-04T08:33:04.740Z,1632
2023-01-04T08:33:45.283Z,1616
2023-01-04T08:34:26.849Z,1656
2023-01-04T08:39:51.175Z,1604
2023-01-04T08:40:58.034Z,1684
2023-01-04T08:41:31.246Z,1644
2023-01-04T08:42:19.115Z,1616
2023-01-04T08:42:33.400Z,1568
2023-01-04T08:43:13.930Z,1492
2023-01-04T08:43:54.504Z,1424
2023-01-04T08:44:35.138Z,1356
2023-01-04T08:45:15.576Z,1328
2023-01-04T08:45:56.215Z,1384
2023-01-04T08:52:01.366Z,1652
2023-01-04T08:52:41.878Z,1704
2023-01-04T08:53:22.551Z,1816
2023-01-04T08:54:03.008Z,1920
2023-01-04T08:54:43.559Z,1920
2023-01-04T08:55:24.933Z,1976
2023-01-04T08:56:05.475Z,2056
2023-01-04T08:56:46.042Z,2084
2023-01-04T09:01:31.904Z,2216
2023-01-04T09:03:49.941Z,2240
2023-01-04T09:04:30.522Z,2276
2023-01-04T09:05:11.184Z,2248
2023-01-04T09:05:51.645Z,2236
2023-01-04T09:06:32.218Z,2228
2023-01-04T09:07:12.749Z,2196
2023-01-04T09:07:53.288Z,2256
2023-01-04T09:08:33.847Z,2388
2023-01-04T09:09:14.388Z,2424
2023-01-04T09:09:54.926Z,2464
2023-01-04T09:15:59.749Z,3044
2023-01-04T09:16:40.350Z,3060
2023-01-04T09:18:56.495Z,2684
2023-01-04T09:19:38.046Z,2552
2023-01-04T09:20:19.250Z,2492
2023-01-04T09:20:59.774Z,2456
2023-01-04T09:23:12.830Z,2344
2023-01-04T09:23:53.309Z,2352
2023-01-04T09:24:34.507Z,2460
2023-01-04T09:25:15.025Z,2512
2023-01-04T09:25:55.560Z,2536
2023-01-04T09:26:36.095Z,2636
2023-01-04T09:27:16.615Z,2632
2023-01-04T09:27:57.116Z,2624
2023-01-04T09:28:37.661Z,2624
2023-01-04T09:34:42.724Z,2472
2023-01-04T09:35:24.100Z,2616
2023-01-04T09:36:04.662Z,2700
2023-01-04T09:38:17.466Z,2836
2023-01-04T09:38:58.500Z,2852
2023-01-04T09:39:39.008Z,2832
2023-01-04T09:40:19.602Z,2840
2023-01-04T09:42:37.159Z,2956
2023-01-04T09:43:19.818Z,3120
2023-01-04T09:43:53.791Z,3264
2023-01-04T09:45:03.577Z,3296
2023-01-04T09:45:24.113Z,3224
2023-01-04T09:45:55.595Z,3192
2023-01-04T09:46:36.769Z,3188
2023-01-04T09:47:17.198Z,3180
2023-01-04T09:47:57.765Z,3108
2023-01-04T09:54:02.511Z,2832
2023-01-04T09:54:43.028Z,2976
2023-01-04T09:55:36.738Z,3016
2023-01-04T09:56:04.059Z,3128
2023-01-04T09:56:44.589Z,3256
2023-01-04T09:57:25.129Z,3224
2023-01-04T09:58:05.668Z,3148
2023-01-04T09:58:47.142Z,3184
2023-01-04T09:59:27.653Z,3172
2023-01-04T10:03:32.799Z,3832
2023-01-04T10:04:13.238Z,4096
2023-01-04T10:04:53.767Z,4204
2023-01-04T10:05:34.388Z,4376
2023-01-04T10:06:14.937Z,4452
2023-01-04T10:06:59.527Z,4640
2023-01-04T10:07:35.992Z,4744
2023-01-04T10:08:16.542Z,4872
2023-01-04T10:08:58.048Z,5008
2023-01-04T10:14:59.544Z,5372
2023-01-04T10:15:40.052Z,5380
2023-01-04T10:16:25.394Z,5228
2023-01-04T10:17:24.013Z,4960
2023-01-04T10:18:34.342Z,4828
2023-01-04T10:19:23.772Z,4300
2023-01-04T10:28:26.476Z,2668
2023-01-04T10:29:07.011Z,2676
2023-01-04T10:29:47.523Z,2860
2023-01-04T10:30:28.062Z,2936
2023-01-04T10:31:39.097Z,2940
2023-01-04T10:33:21.617Z,3084
2023-01-04T10:34:02.138Z,2892
2023-01-04T10:34:42.661Z,2904
2023-01-04T10:35:23.168Z,2980
2023-01-04T10:36:03.696Z,2988
2023-01-04T10:36:44.237Z,2944
2023-01-04T10:37:24.802Z,3136
2023-01-04T10:38:05.296Z,3416
2023-01-04T10:38:45.827Z,3688
2023-01-04T10:39:32.234Z,3956
2023-01-04T10:42:45.316Z,4168
2023-01-04T10:43:25.871Z,3968
2023-01-04T10:44:09.652Z,3736
2023-01-04T10:44:46.968Z,3576
2023-01-04T10:45:28.429Z,3568
2023-01-04T10:46:08.998Z,3596
2023-01-04T10:46:49.551Z,3320
2023-01-04T10:47:30.040Z,3312
2023-01-04T10:52:55.022Z,3232
2023-01-04T10:53:35.562Z,2976
2023-01-04T10:54:16.105Z,2636
2023-01-04T10:54:56.619Z,2536
2023-01-04T10:55:37.235Z,2508
2023-01-04T10:56:24.609Z,2704
2023-01-04T10:57:01.181Z,2900
2023-01-04T10:57:38.768Z,3092
2023-01-04T10:58:20.257Z,3196
2023-01-04T11:03:40.926Z,3212
2023-01-04T11:04:21.386Z,3208
2023-01-04T11:05:01.881Z,3124
2023-01-04T11:05:42.393Z,3120
2023-01-04T11:06:22.920Z,3228
2023-01-04T11:07:03.462Z,3256
2023-01-04T11:07:43.997Z,3352
2023-01-04T11:08:24.527Z,3584
2023-01-04T11:09:05.989Z,3672
2023-01-04T11:13:10.811Z,2976
2023-01-04T11:13:51.337Z,2756
2023-01-04T11:14:36.963Z,2756
2023-01-04T11:15:12.383Z,2832
2023-01-04T11:15:53.049Z,2660
2023-01-04T11:16:33.453Z,2628
2023-01-04T11:17:13.983Z,2672
2023-01-04T11:19:29.162Z,2548
2023-01-04T11:20:11.603Z,2444
2023-01-04T11:20:55.908Z,2368
2023-01-04T11:21:40.171Z,2280
2023-01-04T11:23:40.362Z,2100
2023-01-04T11:24:36.224Z,1980
2023-01-04T11:27:25.108Z,2140
2023-01-04T11:28:01.188Z,2140
2023-01-04T11:28:42.211Z,2240
2023-01-04T11:29:22.746Z,2348
2023-01-04T11:30:03.299Z,2412
2023-01-04T11:30:43.867Z,2456
2023-01-04T11:31:24.443Z,2548
2023-01-04T11:32:05.571Z,2712
2023-01-04T11:38:10.433Z,3744
2023-01-04T11:38:50.956Z,3644
2023-01-04T11:39:31.498Z,3496
2023-01-04T11:40:12.045Z,3388
2023-01-04T11:40:52.616Z,3548
2023-01-04T11:41:33.123Z,4000
2023-01-04T11:42:13.644Z,4160
2023-01-04T11:42:54.191Z,3912
2023-01-04T11:43:34.693Z,3840
2023-01-04T11:44:15.233Z,3944
2023-01-04T11:48:55.019Z,3556
2023-01-04T11:49:35.604Z,3436
2023-01-04T11:50:16.060Z,3140
2023-01-04T11:50:56.581Z,3124
2023-01-04T11:51:37.145Z,3132
2023-01-04T11:52:17.684Z,3184
2023-01-04T11:52:58.198Z,3348
2023-01-04T11:53:38.738Z,3600
2023-01-04T11:54:19.257Z,3624
2023-01-04T11:54:59.803Z,3440
2023-01-04T11:59:04.948Z,3428
2023-01-04T12:01:18.884Z,3584
2023-01-04T12:01:59.539Z,3212
2023-01-04T12:03:21.460Z,3112
2023-01-04T12:04:02.512Z,3228
2023-01-04T12:04:43.057Z,3524
2023-01-04T12:05:29.313Z,3644
2023-01-04T12:11:28.708Z,4436
2023-01-04T12:12:13.982Z,4372
2023-01-04T12:12:49.817Z,4308
2023-01-04T12:13:30.355Z,4424
2023-01-04T12:14:10.881Z,4608
2023-01-04T12:14:51.563Z,4616
2023-01-04T12:15:32.097Z,5220
2023-01-04T12:16:13.504Z,5772
2023-01-04T12:22:18.902Z,4256
2023-01-04T12:22:59.507Z,4432
2023-01-04T12:23:40.031Z,4496
2023-01-04T12:24:20.545Z,4828
2023-01-04T12:25:01.322Z,5272
2023-01-04T12:25:41.796Z,5852
2023-01-04T12:26:22.375Z,6152
2023-01-04T12:28:36.284Z,6212
2023-01-04T12:29:17.485Z,6324
2023-01-04T12:29:58.075Z,6040
2023-01-04T12:30:38.616Z,6012
2023-01-04T12:33:06.905Z,5844
2023-01-04T12:33:47.470Z,5568
2023-01-04T12:34:28.204Z,5772
2023-01-04T12:35:08.588Z,6132
2023-01-04T12:35:49.101Z,6088
2023-01-04T12:36:29.648Z,5920
2023-01-04T12:37:10.178Z,6092
2023-01-04T12:37:51.558Z,6680
2023-01-04T12:43:13.546Z,6572
2023-01-04T12:43:54.134Z,6384
2023-01-04T12:44:34.651Z,6248
2023-01-04T12:45:15.201Z,6032
2023-01-04T12:45:55.765Z,5816
2023-01-04T12:46:36.327Z,5732
2023-01-04T12:47:16.833Z,5896
2023-01-04T12:47:57.387Z,6224
2023-01-04T12:48:37.950Z,6292
2023-01-04T12:49:18.501Z,6296
2023-01-04T12:52:20.687Z,6096
2023-01-04T12:52:55.010Z,6004
2023-01-04T12:53:29.696Z,5940
2023-01-04T12:53:59.798Z,5892
2023-01-04T12:54:40.463Z,5864
2023-01-04T12:55:21.643Z,5828
2023-01-04T13:00:46.733Z,5704
2023-01-04T13:01:27.377Z,5720
2023-01-04T13:02:07.842Z,5688
2023-01-04T13:02:48.726Z,5680
2023-01-04T13:03:28.857Z,5692
2023-01-04T13:04:09.654Z,5648
2023-01-04T13:04:50.149Z,5540
2023-01-04T13:05:55.781Z,5420
2023-01-04T13:06:12.147Z,5100
2023-01-04T13:09:31.292Z,5544
2023-01-04T13:10:11.892Z,5648
2023-01-04T13:10:52.631Z,5608
2023-01-04T13:11:33.229Z,5656
2023-01-04T13:12:13.879Z,5724
2023-01-04T13:12:55.312Z,5832
2023-01-04T13:13:35.919Z,5812
2023-01-04T13:19:01.409Z,5692
2023-01-04T13:19:42.018Z,5632
2023-01-04T13:20:22.549Z,5628
2023-01-04T13:21:03.108Z,5624
2023-01-04T13:23:16.419Z,5720
2023-01-04T13:23:58.412Z,5688
2023-01-04T13:24:38.964Z,5704
2023-01-04T13:25:20.359Z,5688
2023-01-04T13:27:19.073Z,5648
2023-01-04T13:27:59.664Z,5668
2023-01-04T13:28:40.273Z,5652
2023-01-04T13:29:20.903Z,5572
2023-01-04T13:30:01.487Z,5536
2023-01-04T13:30:42.129Z,5500
2023-01-04T13:31:23.258Z,5416
2023-01-04T13:32:03.959Z,5320
2023-01-04T13:37:29.485Z,5064
2023-01-04T13:38:09.997Z,5052
2023-01-04T13:38:50.551Z,5016
2023-01-04T13:39:31.082Z,4984
2023-01-04T13:40:11.650Z,4908
2023-01-04T13:40:52.243Z,4836
2023-01-04T13:41:32.892Z,4776
2023-01-04T13:42:13.450Z,4720
2023-01-04T13:42:54.032Z,4672
2023-01-04T13:46:54.001Z,4412
2023-01-04T13:47:34.436Z,4368
2023-01-04T13:48:15.047Z,4276
2023-01-04T13:48:55.541Z,4172
2023-01-04T13:49:36.091Z,4152
2023-01-04T13:51:36.823Z,4308
2023-01-04T13:52:44.685Z,4356
2023-01-04T13:53:06.042Z,4388
2023-01-04T13:53:35.935Z,4412
2023-01-04T13:55:35.799Z,4064
2023-01-04T13:56:16.972Z,3952
2023-01-04T13:57:00.330Z,3872
2023-01-04T13:57:40.882Z,3720
2023-01-04T13:59:38.659Z,3676
2023-01-04T14:00:19.172Z,3596
2023-01-04T14:00:59.711Z,3536
2023-01-04T14:01:40.234Z,3512
2023-01-04T14:02:20.931Z,3444
2023-01-04T14:03:01.505Z,3320
2023-01-04T14:03:41.877Z,3224
2023-01-04T14:04:22.377Z,3100
2023-01-04T14:05:02.912Z,3020
2023-01-04T14:05:43.462Z,2928
2023-01-04T14:09:59.995Z,2696
2023-01-04T14:10:40.534Z,2592
2023-01-04T14:11:21.863Z,2508
2023-01-04T14:12:09.622Z,2392
2023-01-04T14:14:00.403Z,2140
2023-01-04T14:14:40.946Z,2112
2023-01-04T14:15:21.622Z,2132
2023-01-04T14:16:02.093Z,2140
2023-01-04T14:16:42.519Z,2124
2023-01-04T14:17:23.068Z,2088
2023-01-04T14:18:03.563Z,2048
2023-01-04T14:18:44.967Z,1992
2023-01-04T14:19:26.392Z,1948
2023-01-04T14:26:38.347Z,2048
2023-01-04T14:27:18.906Z,2128
2023-01-04T14:28:00.327Z,2216
2023-01-04T14:28:48.865Z,2292
2023-01-04T14:29:21.339Z,2324
2023-01-04T14:30:03.471Z,2368
2023-01-04T14:33:28.216Z,2332
2023-01-04T14:34:09.444Z,2316
2023-01-04T14:34:50.345Z,2324
2023-01-04T14:35:30.597Z,2332
2023-01-04T14:36:11.126Z,2356
2023-01-04T14:36:51.691Z,2364
2023-01-04T14:37:32.300Z,2340
2023-01-04T14:38:14.732Z,2288
2023-01-04T14:41:13.520Z,2188
2023-01-04T14:41:54.223Z,2168
2023-01-04T14:42:35.443Z,2104
2023-01-04T14:43:16.607Z,1964
2023-01-04T14:45:44.702Z,1656
2023-01-04T14:46:25.318Z,1608
2023-01-04T14:47:05.899Z,1548
2023-01-04T14:47:47.203Z,1528
2023-01-04T14:50:16.090Z,1516
2023-01-04T14:50:58.393Z,1508
2023-01-04T14:51:39.182Z,1492
2023-01-04T14:52:19.707Z,1492
2023-01-04T14:53:00.230Z,1468
2023-01-04T14:57:15.735Z,1316
2023-01-04T14:57:56.256Z,1288
2023-01-04T14:58:37.543Z,1260
2023-01-04T14:59:18.716Z,1216
2023-01-04T14:59:59.248Z,1176
2023-01-04T15:00:40.393Z,1176
2023-01-04T15:03:20.628Z,1060
2023-01-04T15:04:00.895Z,1100
2023-01-04T15:04:41.383Z,1064
2023-01-04T15:05:21.922Z,988
2023-01-04T15:07:50.418Z,952
2023-01-04T15:08:30.941Z,932
2023-01-04T15:09:11.448Z,876
2023-01-04T15:09:52.832Z,836
2023-01-04T15:10:33.376Z,856
2023-01-04T15:11:14.883Z,852
2023-01-04T15:13:33.489Z,696
2023-01-04T15:14:10.135Z,684
2023-01-04T15:14:50.603Z,684
2023-01-04T15:15:31.176Z,652
2023-01-04T15:16:11.673Z,624
2023-01-04T15:16:52.115Z,612
2023-01-04T15:17:32.582Z,592
2023-01-04T15:18:13.107Z,580
2023-01-04T15:18:53.624Z,556
2023-01-04T15:19:37.664Z,560
2023-01-04T15:23:54.029Z,488
2023-01-04T15:24:34.542Z,464
2023-01-04T15:25:15.039Z,444
2023-01-04T15:25:55.595Z,416
2023-01-04T15:26:36.132Z,412
2023-01-04T15:27:16.590Z,400
2023-01-04T15:27:57.211Z,392
2023-01-04T15:28:37.656Z,368
2023-01-04T15:29:18.138Z,340
2023-01-04T15:29:58.842Z,312
2023-01-04T15:36:31.673Z,228
2023-01-04T15:37:12.200Z,216
2023-01-04T15:37:52.765Z,200
2023-01-04T15:38:33.297Z,188
2023-01-04T15:39:13.819Z,176
2023-01-04T15:40:00.091Z,164
2023-01-04T15:40:34.866Z,156
2023-01-04T15:41:15.416Z,148
2023-01-04T15:43:35.839Z,120
2023-01-04T15:44:10.498Z,112
2023-01-04T15:44:50.996Z,108
2023-01-04T15:45:31.514Z,104
2023-01-04T15:46:12.015Z,104
2023-01-04T15:46:53.102Z,96
2023-01-04T15:47:33.638Z,96
2023-01-04T15:48:14.148Z,92
2023-01-04T15:48:54.617Z,84
2023-01-04T15:55:39.830Z,36
2023-01-04T15:56:20.318Z,36
2023-01-04T15:57:00.826Z,28
2023-01-04T15:57:43.822Z,28
2023-01-04T15:58:21.901Z,28
2023-01-04T15:59:02.441Z,24
2023-01-04T15:59:42.974Z,20
2023-01-04T16:00:23.471Z,20
2023-01-04T16:01:06.566Z,20